createdAt,value
2023-03-09T00:00:23.010Z,95.04
2023-03-09T00:03:16.888Z,95.00
2023-03-09T00:05:55.221Z,94.70
2023-03-09T00:08:25.108Z,94.92
2023-03-09T00:10:55.387Z,94.56
2023-03-09T00:13:25.091Z,94.55
2023-03-09T00:15:55.268Z,94.59
2023-03-09T00:18:25.103Z,94.48
2023-03-09T00:20:55.231Z,94.57
2023-03-09T00:23:24.826Z,94.32
2023-03-09T00:25:55.428Z,94.59
2023-03-09T00:28:24.998Z,94.33
2023-03-09T00:30:54.646Z,94.73
2023-03-09T00:33:25.217Z,94.47
2023-03-09T00:35:54.847Z,94.73
2023-03-09T00:38:24.438Z,94.97
2023-03-09T00:40:54.655Z,94.87
2023-03-09T00:43:24.340Z,94.96
2023-03-09T00:45:53.902Z,94.55
2023-03-09T00:48:25.328Z,94.76
2023-03-09T00:50:54.957Z,94.69
2023-03-09T00:53:25.162Z,94.71
2023-03-09T00:55:54.811Z,94.86
2023-03-09T00:58:24.537Z,94.80
2023-03-09T01:00:54.096Z,94.63
2023-03-09T01:03:23.864Z,94.66
2023-03-09T01:05:55.622Z,94.98
2023-03-09T01:08:25.891Z,95.04
2023-03-09T01:10:55.585Z,94.84
2023-03-09T01:13:25.729Z,95.24
2023-03-09T01:15:55.389Z,95.51
2023-03-09T01:18:24.909Z,95.25
2023-03-09T01:20:55.521Z,95.20
2023-03-09T01:23:25.461Z,94.86
2023-03-09T01:25:56.991Z,95.31
2023-03-09T01:28:26.650Z,95.24
2023-03-09T01:30:57.196Z,95.10
2023-03-09T01:33:26.837Z,95.13
2023-03-09T01:35:56.414Z,94.90
2023-03-09T01:38:26.516Z,94.97
2023-03-09T01:40:56.038Z,95.04
2023-03-09T01:43:37.039Z,94.77
2023-03-09T01:46:30.598Z,94.62
2023-03-09T01:49:06.557Z,94.80
2023-03-09T01:51:42.441Z,94.91
2023-03-09T01:54:18.050Z,94.95
2023-03-09T01:56:53.434Z,94.81
2023-03-09T01:59:27.181Z,94.41
2023-03-09T02:01:57.154Z,94.51
2023-03-09T02:04:36.541Z,94.58
2023-03-09T02:07:06.937Z,94.47
2023-03-09T02:09:42.950Z,94.22
2023-03-09T02:12:17.012Z,94.27
2023-03-09T02:14:47.306Z,94.08
2023-03-09T02:17:17.781Z,94.30
2023-03-09T02:20:08.425Z,94.15
2023-03-09T02:22:39.351Z,94.02
2023-03-09T02:25:19.312Z,94.06
2023-03-09T02:27:50.070Z,94.05
2023-03-09T02:30:22.474Z,94.05
2023-03-09T02:32:52.098Z,93.96
2023-03-09T02:35:22.247Z,93.54
2023-03-09T02:37:53.020Z,93.60
2023-03-09T02:40:30.633Z,93.67
2023-03-09T02:43:04.724Z,93.55
2023-03-09T02:45:35.670Z,93.07
2023-03-09T02:48:06.376Z,93.08
2023-03-09T02:50:36.500Z,92.54
2023-03-09T02:53:07.239Z,92.68
2023-03-09T02:55:37.337Z,92.77
2023-03-09T02:58:08.800Z,92.48
2023-03-09T03:00:40.508Z,92.35
2023-03-09T03:03:11.200Z,92.46
2023-03-09T03:05:41.324Z,92.36
2023-03-09T03:08:11.593Z,92.10
2023-03-09T03:10:42.382Z,92.03
2023-03-09T03:13:13.517Z,91.97
2023-03-09T03:15:43.465Z,91.71
2023-03-09T03:18:13.546Z,91.62
2023-03-09T03:20:43.095Z,91.56
2023-03-09T03:23:12.725Z,91.40
2023-03-09T03:25:47.637Z,91.55
2023-03-09T03:28:18.556Z,91.39
2023-03-09T03:30:52.776Z,91.19
2023-03-09T03:33:24.271Z,90.65
2023-03-09T03:35:54.846Z,90.72
2023-03-09T03:38:25.592Z,90.94
2023-03-09T03:40:55.489Z,90.74
2023-03-09T03:43:25.588Z,90.59
2023-03-09T03:45:55.768Z,90.35
2023-03-09T03:48:25.973Z,90.55
2023-03-09T03:50:56.038Z,90.38
2023-03-09T03:53:25.767Z,90.23
2023-03-09T03:55:57.006Z,90.12
2023-03-09T03:58:27.169Z,89.60
2023-03-09T04:00:57.617Z,89.83
2023-03-09T04:03:27.336Z,89.47
2023-03-09T04:05:58.355Z,89.20
2023-03-09T04:08:28.140Z,89.41
2023-03-09T04:10:58.148Z,89.69
2023-03-09T04:13:28.245Z,89.46
2023-03-09T04:15:57.869Z,89.41
2023-03-09T04:18:28.554Z,89.63
2023-03-09T04:20:58.268Z,89.24
2023-03-09T04:23:28.392Z,89.45
2023-03-09T04:26:02.022Z,89.49
2023-03-09T04:28:40.782Z,89.28
2023-03-09T04:31:15.378Z,89.45
2023-03-09T04:33:45.262Z,89.48
2023-03-09T04:36:19.265Z,89.39
2023-03-09T04:38:51.652Z,89.07
2023-03-09T04:41:22.395Z,89.20
2023-03-09T04:43:55.589Z,89.09
2023-03-09T04:46:25.287Z,88.92
2023-03-09T04:48:57.410Z,88.65
2023-03-09T04:51:27.010Z,88.59
2023-03-09T04:53:58.961Z,88.48
2023-03-09T04:56:29.946Z,88.27
2023-03-09T04:59:16.578Z,88.20
2023-03-09T05:01:46.578Z,87.84
2023-03-09T05:04:21.525Z,87.73
2023-03-09T05:06:56.324Z,87.80
2023-03-09T05:09:27.907Z,87.32
2023-03-09T05:11:58.069Z,87.57
2023-03-09T05:14:30.208Z,87.63
2023-03-09T05:17:00.341Z,87.31
2023-03-09T05:19:31.486Z,86.83
2023-03-09T05:22:04.188Z,87.20
2023-03-09T05:24:35.410Z,86.83
2023-03-09T05:27:05.557Z,87.08
2023-03-09T05:29:37.283Z,86.59
2023-03-09T05:32:07.847Z,86.65
2023-03-09T05:34:39.377Z,86.69
2023-03-09T05:37:09.541Z,86.41
2023-03-09T05:39:40.711Z,86.21
2023-03-09T05:42:10.594Z,86.27
2023-03-09T05:44:42.485Z,86.02
2023-03-09T05:47:13.362Z,86.19
2023-03-09T05:49:43.696Z,86.13
2023-03-09T05:52:13.275Z,86.03
2023-03-09T05:54:43.487Z,86.27
2023-03-09T05:57:16.186Z,86.28
2023-03-09T05:59:50.405Z,86.09
2023-03-09T06:02:21.377Z,85.77
2023-03-09T06:04:52.642Z,85.88
2023-03-09T06:07:23.225Z,85.50
2023-03-09T06:09:53.887Z,85.51
2023-03-09T06:12:28.402Z,85.55
2023-03-09T06:14:58.477Z,85.10
2023-03-09T06:17:30.676Z,85.12
2023-03-09T06:20:01.485Z,85.00
2023-03-09T06:22:32.254Z,85.17
2023-03-09T06:25:02.171Z,85.26
2023-03-09T06:27:34.636Z,85.23
2023-03-09T06:30:05.626Z,85.07
2023-03-09T06:32:36.334Z,85.13
2023-03-09T06:35:08.041Z,84.74
2023-03-09T06:37:38.418Z,84.84
2023-03-09T06:40:13.468Z,84.71
2023-03-09T06:42:43.712Z,84.69
2023-03-09T06:45:13.674Z,84.66
2023-03-09T06:47:43.325Z,84.32
2023-03-09T06:50:15.356Z,84.40
2023-03-09T06:52:46.925Z,84.22
2023-03-09T06:55:18.707Z,84.16
2023-03-09T06:57:59.883Z,84.11
2023-03-09T07:00:29.978Z,83.94
2023-03-09T07:03:03.321Z,83.74
2023-03-09T07:05:34.104Z,82.98
2023-03-09T07:08:03.760Z,82.82
2023-03-09T07:10:33.349Z,83.23
2023-03-09T07:13:02.936Z,82.85
2023-03-09T07:15:32.463Z,82.46
2023-03-09T07:18:02.054Z,82.25
2023-03-09T07:20:31.819Z,82.51
2023-03-09T07:23:01.363Z,82.10
2023-03-09T07:25:35.499Z,82.20
2023-03-09T07:28:09.116Z,81.75
2023-03-09T07:30:40.676Z,81.70
2023-03-09T07:33:11.610Z,82.17
2023-03-09T07:35:41.964Z,82.07
2023-03-09T07:38:11.616Z,81.91
2023-03-09T07:40:41.331Z,81.48
2023-03-09T07:43:13.754Z,81.65
2023-03-09T07:46:09.737Z,81.31
2023-03-09T07:48:39.675Z,81.51
2023-03-09T07:51:09.971Z,81.16
2023-03-09T07:53:41.065Z,80.39
2023-03-09T07:56:11.036Z,80.26
2023-03-09T07:58:41.060Z,80.54
2023-03-09T08:01:15.435Z,80.18
2023-03-09T08:03:45.301Z,80.16
2023-03-09T08:06:15.132Z,79.88
2023-03-09T08:08:45.400Z,79.75
2023-03-09T08:11:15.712Z,79.55
2023-03-09T08:13:45.309Z,79.03
2023-03-09T08:16:15.101Z,79.04
2023-03-09T08:18:45.672Z,79.27
2023-03-09T08:21:16.904Z,78.76
2023-03-09T08:23:46.531Z,78.06
2023-03-09T08:26:17.821Z,77.94
2023-03-09T08:28:47.545Z,77.47
2023-03-09T08:31:17.974Z,77.07
2023-03-09T08:33:49.826Z,77.28
2023-03-09T08:36:21.677Z,77.52
2023-03-09T08:38:52.069Z,76.88
2023-03-09T08:41:22.579Z,76.58
2023-03-09T08:43:54.532Z,75.65
2023-03-09T08:46:24.795Z,75.64
2023-03-09T08:48:54.329Z,74.80
2023-03-09T08:51:24.250Z,74.67
2023-03-09T08:53:54.326Z,75.38
2023-03-09T08:56:23.922Z,75.72
2023-03-09T08:58:53.494Z,74.97
2023-03-09T09:01:23.099Z,74.85
2023-03-09T09:03:52.695Z,74.92
2023-03-09T09:06:22.303Z,74.87
2023-03-09T09:08:51.961Z,74.30
2023-03-09T09:11:21.802Z,73.47
2023-03-09T09:13:53.334Z,73.26
2023-03-09T09:16:23.068Z,73.76
2023-03-09T09:18:52.944Z,73.70
2023-03-09T09:21:22.719Z,73.75
2023-03-09T09:23:52.306Z,73.16
2023-03-09T09:26:22.307Z,72.16
2023-03-09T09:28:54.000Z,71.97
2023-03-09T09:31:24.657Z,71.83
2023-03-09T09:33:58.110Z,71.24
2023-03-09T09:36:27.878Z,71.87
2023-03-09T09:38:57.878Z,71.47
2023-03-09T09:41:35.563Z,71.70
2023-03-09T09:44:11.215Z,70.40
2023-03-09T09:46:41.341Z,70.74
2023-03-09T09:49:20.599Z,70.55
2023-03-09T09:52:01.991Z,70.90
2023-03-09T09:54:40.861Z,70.21
2023-03-09T09:57:17.895Z,70.18
2023-03-09T09:59:54.031Z,70.01
2023-03-09T10:02:50.551Z,70.06
2023-03-09T10:05:27.549Z,69.31
2023-03-09T10:08:02.994Z,68.70
2023-03-09T10:10:34.253Z,67.81
2023-03-09T10:13:12.858Z,68.18
2023-03-09T10:15:44.092Z,66.52
2023-03-09T10:18:19.129Z,65.87
2023-03-09T10:20:52.673Z,65.26
2023-03-09T10:23:27.749Z,65.80
2023-03-09T10:26:03.590Z,64.99
2023-03-09T10:28:40.945Z,63.99
2023-03-09T10:31:17.646Z,64.58
2023-03-09T10:33:52.753Z,64.55
2023-03-09T10:36:28.890Z,64.55
2023-03-09T10:39:02.615Z,64.23
2023-03-09T10:41:32.263Z,64.49
2023-03-09T10:44:03.256Z,63.29
2023-03-09T10:46:52.837Z,63.41
2023-03-09T10:49:22.508Z,63.02
2023-03-09T10:52:01.218Z,62.77
2023-03-09T10:54:37.315Z,61.81
2023-03-09T10:57:24.574Z,61.36
2023-03-09T10:59:59.419Z,61.61
2023-03-09T11:02:32.520Z,62.24
2023-03-09T11:05:19.810Z,62.67
2023-03-09T11:07:54.137Z,61.85
2023-03-09T11:10:27.154Z,60.75
2023-03-09T11:12:58.066Z,60.26
2023-03-09T11:15:30.474Z,60.56
2023-03-09T11:18:01.586Z,61.07
2023-03-09T11:20:34.320Z,61.13
2023-03-09T11:23:15.974Z,60.71
2023-03-09T11:26:06.093Z,60.77
2023-03-09T11:29:00.350Z,61.13
2023-03-09T11:31:36.383Z,61.38
2023-03-09T11:34:09.340Z,62.12
2023-03-09T11:36:44.128Z,62.41
2023-03-09T11:39:21.155Z,62.44
2023-03-09T11:41:54.487Z,62.01
2023-03-09T11:44:31.456Z,61.38
2023-03-09T11:47:05.646Z,60.29
2023-03-09T11:49:37.776Z,60.39
2023-03-09T11:52:08.784Z,60.68
2023-03-09T11:54:43.744Z,60.84
2023-03-09T11:57:18.983Z,59.78
2023-03-09T11:59:54.182Z,58.43
2023-03-09T12:02:30.655Z,58.25
2023-03-09T12:05:01.966Z,58.28
2023-03-09T12:07:38.430Z,58.63
2023-03-09T12:10:15.809Z,59.43
2023-03-09T12:12:52.587Z,58.69
2023-03-09T12:15:31.001Z,56.03
2023-03-09T12:18:03.302Z,56.06
2023-03-09T12:20:36.141Z,56.07
2023-03-09T12:23:06.816Z,55.64
2023-03-09T12:25:36.669Z,56.45
2023-03-09T12:28:19.422Z,55.64
2023-03-09T12:30:55.559Z,55.34
2023-03-09T12:33:56.819Z,55.38
2023-03-09T12:36:28.991Z,54.55
2023-03-09T12:39:33.711Z,54.68
2023-03-09T12:42:24.006Z,54.87
2023-03-09T12:45:01.421Z,54.54
2023-03-09T12:47:40.661Z,54.75
2023-03-09T12:50:25.782Z,54.69
2023-03-09T12:53:07.336Z,54.25
2023-03-09T12:55:53.629Z,53.83
2023-03-09T12:58:42.922Z,53.27
2023-03-09T13:01:28.681Z,54.11
2023-03-09T13:04:13.542Z,53.48
2023-03-09T13:06:45.220Z,53.58
2023-03-09T13:09:21.557Z,53.97
2023-03-09T13:11:59.387Z,53.60
2023-03-09T13:15:04.659Z,53.58
2023-03-09T13:17:39.578Z,53.96
2023-03-09T13:20:34.731Z,53.05
2023-03-09T13:23:10.411Z,53.58
2023-03-09T13:25:47.996Z,53.31
2023-03-09T13:28:40.838Z,52.92
2023-03-09T13:31:24.612Z,53.76
2023-03-09T13:33:55.565Z,53.96
2023-03-09T13:36:27.136Z,52.94
2023-03-09T13:39:04.106Z,52.63
2023-03-09T13:41:34.459Z,52.72
2023-03-09T13:44:04.255Z,53.63
2023-03-09T13:46:35.747Z,53.24
2023-03-09T13:49:14.206Z,53.37
2023-03-09T13:51:49.561Z,53.20
2023-03-09T13:54:48.044Z,53.06
2023-03-09T13:57:19.832Z,53.61
2023-03-09T13:59:56.693Z,53.53
2023-03-09T14:02:27.607Z,52.82
2023-03-09T14:08:20.401Z,54.15
2023-03-09T14:10:50.857Z,54.33
2023-03-09T14:13:23.000Z,53.01
2023-03-09T14:16:06.660Z,53.71
2023-03-09T14:18:43.620Z,53.58
2023-03-09T14:21:27.384Z,53.81
2023-03-09T14:24:10.419Z,53.74
2023-03-09T14:26:40.490Z,53.48
2023-03-09T14:29:23.240Z,53.40
2023-03-09T14:32:20.119Z,54.06
2023-03-09T14:34:52.717Z,53.90
2023-03-09T14:37:25.091Z,54.50
2023-03-09T14:39:55.976Z,53.26
2023-03-09T14:42:30.545Z,54.37
2023-03-09T14:45:21.485Z,54.23
2023-03-09T14:47:56.831Z,53.49
2023-03-09T14:50:27.027Z,53.35
2023-03-09T14:52:56.603Z,52.81
2023-03-09T14:55:26.182Z,53.33
2023-03-09T14:57:55.677Z,53.73
2023-03-09T15:00:26.667Z,53.17
2023-03-09T15:02:57.100Z,53.09
2023-03-09T15:05:28.056Z,53.93
2023-03-09T15:07:58.554Z,53.94
2023-03-09T15:10:29.210Z,53.42
2023-03-09T15:12:59.049Z,52.19
2023-03-09T15:15:29.129Z,52.38
2023-03-09T15:17:59.044Z,52.05
2023-03-09T15:20:44.095Z,52.26
2023-03-09T15:23:15.149Z,52.09
2023-03-09T15:25:44.745Z,52.79
2023-03-09T15:28:14.351Z,52.91
2023-03-09T15:30:43.949Z,52.62
2023-03-09T15:33:13.590Z,52.53
2023-03-09T15:35:43.925Z,53.11
2023-03-09T15:38:13.734Z,53.42
2023-03-09T15:40:43.747Z,52.93
2023-03-09T15:43:13.318Z,52.87
2023-03-09T15:45:43.506Z,53.17
2023-03-09T15:48:13.407Z,53.64
2023-03-09T15:50:50.387Z,53.99
2023-03-09T15:53:19.960Z,53.56
2023-03-09T15:55:57.614Z,53.60
2023-03-09T15:58:27.210Z,54.07
2023-03-09T16:00:59.626Z,54.12
2023-03-09T16:03:31.158Z,54.21
2023-03-09T16:06:01.594Z,54.05
2023-03-09T16:08:31.367Z,54.13
2023-03-09T16:11:01.020Z,53.42
2023-03-09T16:13:31.669Z,53.49
2023-03-09T16:16:01.872Z,53.81
2023-03-09T16:18:31.396Z,53.25
2023-03-09T16:21:01.833Z,53.19
2023-03-09T16:23:31.777Z,53.61
2023-03-09T16:26:01.434Z,53.51
2023-03-09T16:28:31.067Z,53.86
2023-03-09T16:31:00.869Z,54.25
2023-03-09T16:33:30.430Z,54.10
2023-03-09T16:36:01.242Z,54.12
2023-03-09T16:38:30.931Z,53.70
2023-03-09T16:41:04.429Z,53.29
2023-03-09T16:43:34.182Z,53.26
2023-03-09T16:46:04.201Z,53.71
2023-03-09T16:48:34.449Z,53.89
2023-03-09T16:51:04.599Z,53.10
2023-03-09T16:53:34.217Z,52.57
2023-03-09T16:56:06.231Z,52.94
2023-03-09T16:58:36.708Z,52.90
2023-03-09T17:01:13.803Z,52.85
2023-03-09T17:03:44.239Z,52.45
2023-03-09T17:06:16.022Z,52.61
2023-03-09T17:08:47.288Z,52.70
2023-03-09T17:11:17.689Z,53.26
2023-03-09T17:13:48.925Z,53.05
2023-03-09T17:16:20.673Z,52.09
2023-03-09T17:18:54.708Z,52.46
2023-03-09T17:21:25.104Z,52.77
2023-03-09T17:23:54.993Z,52.46
2023-03-09T17:26:24.625Z,52.62
2023-03-09T17:28:54.237Z,52.96
2023-03-09T17:31:23.909Z,53.13
2023-03-09T17:33:53.604Z,52.95
2023-03-09T17:36:25.536Z,52.95
2023-03-09T17:38:55.799Z,53.17
2023-03-09T17:41:25.833Z,53.18
2023-03-09T17:43:56.524Z,53.36
2023-03-09T17:46:26.547Z,53.42
2023-03-09T17:48:56.177Z,53.43
2023-03-09T17:51:25.800Z,53.44
2023-03-09T17:53:55.633Z,54.05
2023-03-09T17:56:25.452Z,54.28
2023-03-09T17:58:55.302Z,54.44
2023-03-09T18:01:26.910Z,54.20
2023-03-09T18:03:58.428Z,54.28
2023-03-09T18:06:30.328Z,54.34
2023-03-09T18:09:00.854Z,54.29
2023-03-09T18:11:33.386Z,54.39
2023-03-09T18:14:06.704Z,54.63
2023-03-09T18:16:36.479Z,55.29
2023-03-09T18:19:07.558Z,55.03
2023-03-09T18:21:37.620Z,54.78
2023-03-09T18:24:09.447Z,54.79
2023-03-09T18:26:39.780Z,54.87
2023-03-09T18:29:10.604Z,54.85
2023-03-09T18:31:41.190Z,54.95
2023-03-09T18:34:11.412Z,55.23
2023-03-09T18:36:40.967Z,54.49
2023-03-09T18:39:11.128Z,55.05
2023-03-09T18:41:40.953Z,55.32
2023-03-09T18:44:10.622Z,55.07
2023-03-09T18:46:40.464Z,55.08
2023-03-09T18:49:10.071Z,55.16
2023-03-09T18:51:39.894Z,55.55
2023-03-09T18:54:09.951Z,55.09
2023-03-09T18:56:40.127Z,55.61
2023-03-09T18:59:13.418Z,55.90
2023-03-09T19:01:43.316Z,55.77
2023-03-09T19:04:14.653Z,55.88
2023-03-09T19:06:44.635Z,55.93
2023-03-09T19:09:14.302Z,56.32
2023-03-09T19:11:44.132Z,56.69
2023-03-09T19:14:14.142Z,56.71
2023-03-09T19:16:43.933Z,56.38
2023-03-09T19:19:13.626Z,56.46
2023-03-09T19:21:43.239Z,56.62
2023-03-09T19:24:13.495Z,56.64
2023-03-09T19:26:43.087Z,56.81
2023-03-09T19:29:12.715Z,56.74
2023-03-09T19:31:42.367Z,56.62
2023-03-09T19:34:13.543Z,57.05
2023-03-09T19:36:43.788Z,57.23
2023-03-09T19:39:13.622Z,57.25
2023-03-09T19:41:43.166Z,57.91
2023-03-09T19:44:12.824Z,57.52
2023-03-09T19:46:44.405Z,57.77
2023-03-09T19:49:14.180Z,57.62
2023-03-09T19:51:43.820Z,57.91
2023-03-09T19:54:13.945Z,57.86
2023-03-09T19:56:43.625Z,58.03
2023-03-09T19:59:15.370Z,58.58
2023-03-09T20:01:47.063Z,58.63
2023-03-09T20:04:19.224Z,58.92
2023-03-09T20:06:51.354Z,58.85
2023-03-09T20:09:22.025Z,59.27
2023-03-09T20:11:51.904Z,59.37
2023-03-09T20:14:22.968Z,59.52
2023-03-09T20:16:53.558Z,59.82
2023-03-09T20:19:23.649Z,59.77
2023-03-09T20:21:54.261Z,59.81
2023-03-09T20:24:24.589Z,59.55
2023-03-09T20:26:54.253Z,59.45
2023-03-09T20:29:24.083Z,59.76
2023-03-09T20:31:55.466Z,59.99
2023-03-09T20:34:25.261Z,59.84
2023-03-09T20:36:54.952Z,60.02
2023-03-09T20:39:25.047Z,59.86
2023-03-09T20:41:54.707Z,60.30
2023-03-09T20:44:24.292Z,60.51
2023-03-09T20:46:53.878Z,60.70
2023-03-09T20:49:24.695Z,60.52
2023-03-09T20:51:54.295Z,60.47
2023-03-09T20:54:27.085Z,60.72
2023-03-09T20:56:58.823Z,60.74
2023-03-09T20:59:28.646Z,60.91
2023-03-09T21:01:58.426Z,60.95
2023-03-09T21:04:28.138Z,61.11
2023-03-09T21:06:59.333Z,61.12
2023-03-09T21:09:28.921Z,61.48
2023-03-09T21:11:58.676Z,61.81
2023-03-09T21:14:28.282Z,62.01
2023-03-09T21:16:57.881Z,61.90
2023-03-09T21:19:27.607Z,61.90
2023-03-09T21:21:57.350Z,62.19
2023-03-09T21:24:26.955Z,62.17
2023-03-09T21:26:57.438Z,62.46
2023-03-09T21:29:26.980Z,62.40
2023-03-09T21:31:56.953Z,62.46
2023-03-09T21:34:26.554Z,62.76
2023-03-09T21:36:56.131Z,62.69
2023-03-09T21:39:27.503Z,62.76
2023-03-09T21:41:57.026Z,62.90
2023-03-09T21:44:26.612Z,62.93
2023-03-09T21:46:56.454Z,63.20
2023-03-09T21:49:26.194Z,63.41
2023-03-09T21:51:55.853Z,63.29
2023-03-09T21:54:27.106Z,63.65
2023-03-09T21:56:56.710Z,63.60
2023-03-09T21:59:28.169Z,63.76
2023-03-09T22:01:57.777Z,63.74
2023-03-09T22:04:29.909Z,64.30
2023-03-09T22:07:01.184Z,64.40
2023-03-09T22:09:30.790Z,64.74
2023-03-09T22:12:00.466Z,65.18
2023-03-09T22:14:30.131Z,65.37
2023-03-09T22:16:59.728Z,65.81
2023-03-09T22:19:29.504Z,65.98
2023-03-09T22:22:00.544Z,66.11
2023-03-09T22:24:30.195Z,66.28
2023-03-09T22:27:02.266Z,66.34
2023-03-09T22:29:32.243Z,66.47
2023-03-09T22:32:01.814Z,66.39
2023-03-09T22:34:31.469Z,67.18
2023-03-09T22:37:01.127Z,67.19
2023-03-09T22:39:30.736Z,67.59
2023-03-09T22:42:00.302Z,67.31
2023-03-09T22:44:30.398Z,68.05
2023-03-09T22:46:59.920Z,68.06
2023-03-09T22:49:29.494Z,68.53
2023-03-09T22:51:59.096Z,68.61
2023-03-09T22:54:28.977Z,69.12
2023-03-09T22:56:58.525Z,69.10
2023-03-09T22:59:28.128Z,69.44
2023-03-09T23:01:57.727Z,69.69
2023-03-09T23:04:27.728Z,69.84
2023-03-09T23:06:57.280Z,70.02
2023-03-09T23:09:26.815Z,70.11
2023-03-09T23:11:56.491Z,70.12
2023-03-09T23:14:29.980Z,70.25
2023-03-09T23:17:00.017Z,70.50
2023-03-09T23:19:30.671Z,70.69
2023-03-09T23:22:00.147Z,70.66
2023-03-09T23:24:29.695Z,71.06
2023-03-09T23:26:59.244Z,70.75
2023-03-09T23:29:28.953Z,70.96
2023-03-09T23:31:58.524Z,71.44
2023-03-09T23:34:28.145Z,71.39
2023-03-09T23:36:57.821Z,71.81
2023-03-09T23:39:27.439Z,72.15
2023-03-09T23:41:56.992Z,71.74
2023-03-09T23:44:26.888Z,72.36
2023-03-09T23:46:56.420Z,72.71
2023-03-09T23:49:25.978Z,72.69
2023-03-09T23:51:55.518Z,73.04
2023-03-09T23:54:25.112Z,73.21
2023-03-09T23:56:56.296Z,73.36
2023-03-09T23:59:25.912Z,73.29
